| time (UTC) | temp F | wind direction | speed MPH | gust MPH | rain 1hr in | rain 24hr in | rain mn in | humidity % | barometer mb |
| 20260510101536 | 54 | 325 | 0.0 | 0.0 | 0.00 | 0.00 | 0.00 | 86 | 1016.1 |
| 20260510100043 | 54 | 325 | 0.0 | 0.0 | 0.00 | 0.00 | 0.00 | 86 | 1016.1 |
| 20260510094543 | 54 | 325 | 0.0 | 0.0 | 0.00 | 0.00 | 0.00 | 84 | 1015.7 |
| 20260510093034 | 56 | 325 | 0.0 | 0.0 | 0.00 | 0.00 | 0.00 | 83 | 1015.5 |
| 20260510091534 | 56 | 325 | 0.0 | 4.0 | 0.00 | 0.00 | 0.00 | 82 | 1015.7 |
| 20260510090033 | 56 | 340 | 0.0 | 3.0 | 0.00 | 0.00 | 0.00 | 83 | 1015.8 |
| 20260510084533 | 55 | 275 | 0.0 | 4.0 | 0.00 | 0.00 | 0.00 | 84 | 1015.8 |
| 20260510083044 | 55 | 153 | 0.0 | 0.0 | 0.00 | 0.00 | 0.00 | 82 | 1015.6 |
| 20260510081522 | 56 | 153 | 0.0 | 0.0 | 0.00 | 0.00 | 0.00 | 80 | 1015.4 |
| 20260510080025 | 57 | 153 | 0.0 | 0.0 | 0.00 | 0.00 | 0.00 | 79 | 1015.4 |
| 20260510074517 | 57 | 153 | 0.0 | 0.0 | 0.00 | 0.00 | 0.00 | 78 | 1015.4 |
| 20260510073020 | 58 | 153 | 0.0 | 0.0 | 0.00 | 0.00 | 0.00 | 76 | 1015.2 |
| 20260510071512 | 59 | 153 | 0.0 | 0.0 | 0.00 | 0.00 | 0.00 | 75 | 1015.3 |
| 20260510070009 | 60 | 153 | 0.0 | 0.0 | 0.00 | 0.00 | 0.00 | 73 | 1015.3 |
| 20260510064508 | 61 | 153 | 0.0 | 0.0 | 0.00 | 0.00 | 0.00 | 69 | 1015.2 |
| 20260510063009 | 63 | 153 | 0.0 | 2.0 | 0.00 | 0.00 | 0.00 | 66 | 1015.1 |
| 20260510061509 | 65 | 280 | 0.0 | 3.0 | 0.00 | 0.00 | 0.00 | 58 | 1014.9 |
| 20260510060009 | 66 | 300 | 0.0 | 3.0 | 0.00 | 0.00 | 0.00 | 58 | 1014.8 |
| 20260510054509 | 65 | 285 | 1.0 | 5.0 | 0.00 | 0.00 | 0.00 | 58 | 1014.9 |
| 20260510053006 | 65 | 296 | 0.0 | 5.0 | 0.00 | 0.00 | 0.00 | 58 | 1014.9 |
| 20260510051506 | 66 | 281 | 0.0 | 0.0 | 0.00 | 0.00 | 0.00 | 57 | 1014.9 |
| 20260510050006 | 67 | 281 | 0.0 | 3.0 | 0.00 | 0.00 | 0.00 | 55 | 1014.8 |
| 20260510044506 | 67 | 268 | 0.0 | 3.0 | 0.00 | 0.00 | 0.00 | 56 | 1014.9 |
| 20260510043005 | 68 | 286 | 1.0 | 5.0 | 0.00 | 0.00 | 0.00 | 55 | 1014.9 |
| 20260510041504 | 68 | 292 | 0.0 | 3.0 | 0.00 | 0.00 | 0.00 | 55 | 1014.7 |
| 20260510040004 | 69 | 278 | 0.0 | 6.0 | 0.00 | 0.00 | 0.00 | 52 | 1014.5 |
| 20260510034510 | 69 | 318 | 1.0 | 6.0 | 0.00 | 0.00 | 0.00 | 50 | 1014.4 |
| 20260510033004 | 70 | 25 | 0.0 | 5.0 | 0.00 | 0.00 | 0.00 | 48 | 1014.3 |
| 20260510031507 | 70 | 322 | 0.0 | 3.0 | 0.00 | 0.00 | 0.00 | 47 | 1014.2 |
| 20260510030006 | 71 | 315 | 0.0 | 4.0 | 0.00 | 0.00 | 0.00 | 45 | 1014.2 |
| 20260510024502 | 72 | 32 | 0.0 | 7.0 | 0.00 | 0.00 | 0.00 | 43 | 1014.1 |
| 20260510023001 | 73 | 303 | 0.0 | 3.0 | 0.00 | 0.00 | 0.00 | 41 | 1014.1 |
| 20260510021501 | 74 | 33 | 0.0 | 5.0 | 0.00 | 0.00 | 0.00 | 40 | 1014.0 |
| 20260510020101 | 75 | 22 | 1.0 | 4.0 | 0.00 | 0.00 | 0.00 | 40 | 1014.0 |
| 20260510014601 | 75 | 22 | 0.0 | 6.0 | 0.00 | 0.00 | 0.00 | 44 | 1014.1 |
| 20260510013104 | 78 | 42 | 0.0 | 4.0 | 0.00 | 0.00 | 0.00 | 40 | 1014.2 |
| 20260510013001 | 78 | 56 | 0.0 | 4.0 | 0.00 | 0.00 | 0.00 | 39 | 1014.2 |
| 20260510011559 | 80 | 319 | 0.0 | 2.0 | 0.00 | 0.00 | 0.00 | 25 | 1014.0 |
| 20260510010058 | 80 | 312 | 0.0 | 1.0 | 0.00 | 0.00 | 0.00 | 24 | 1014.2 |
| 20260510004553 | 79 | 336 | 0.0 | 5.0 | 0.00 | 0.00 | 0.00 | 27 | 1014.2 |
| 20260510003054 | 79 | 27 | 1.0 | 4.0 | 0.00 | 0.00 | 0.00 | 25 | 1014.4 |
| 20260510001551 | 79 | 27 | 0.0 | 0.0 | 0.00 | 0.00 | 0.00 | 27 | 1014.4 |
| 20260510000050 | 79 | 46 | 0.0 | 6.0 | 0.00 | 0.00 | 0.00 | 29 | 1014.5 |
| 20260509234550 | 78 | 46 | 0.0 | 1.0 | 0.00 | 0.00 | 0.00 | 29 | 1014.7 |
| 20260509233046 | 78 | 97 | 0.0 | 6.0 | 0.00 | 0.00 | 0.00 | 27 | 1014.8 |
| 20260509231545 | 78 | 68 | 1.0 | 7.0 | 0.00 | 0.00 | 0.00 | 26 | 1015.0 |
| 20260509230042 | 78 | 144 | 0.0 | 7.0 | 0.00 | 0.00 | 0.00 | 28 | 1015.2 |
| 20260509224542 | 78 | 129 | 0.0 | 4.0 | 0.00 | 0.00 | 0.00 | 31 | 1015.4 |
| 20260509223038 | 78 | 320 | 1.0 | 7.0 | 0.00 | 0.00 | 0.00 | 28 | 1015.7 |
| 20260509221535 | 79 | 23 | 1.0 | 6.0 | 0.00 | 0.00 | 0.00 | 28 | 1016.1 |
| 20260509220031 | 78 | 281 | 0.0 | 7.0 | 0.00 | 0.00 | 0.00 | 29 | 1016.5 |
| 20260509214527 | 77 | 355 | 1.0 | 8.0 | 0.00 | 0.00 | 0.00 | 29 | 1016.7 |
| 20260509213024 | 76 | 23 | 0.0 | 6.0 | 0.00 | 0.00 | 0.00 | 33 | 1016.8 |
| 20260509211522 | 75 | 350 | 2.0 | 8.0 | 0.00 | 0.00 | 0.00 | 34 | 1017.0 |
| 20260509210022 | 76 | 47 | 1.0 | 5.0 | 0.00 | 0.00 | 0.00 | 34 | 1017.2 |
| 20260509204520 | 75 | 291 | 1.0 | 5.0 | 0.00 | 0.00 | 0.00 | 40 | 1017.3 |
| 20260509203013 | 73 | 28 | 0.0 | 5.0 | 0.00 | 0.00 | 0.00 | 41 | 1017.4 |
| 20260509201511 | 74 | 105 | 0.0 | 6.0 | 0.00 | 0.00 | 0.00 | 38 | 1017.7 |
| 20260509200009 | 73 | 339 | 0.0 | 7.0 | 0.00 | 0.00 | 0.00 | 41 | 1018.0 |
| 20260509194504 | 71 | 319 | 0.0 | 7.0 | 0.00 | 0.00 | 0.00 | 45 | 1018.2 |
| 20260509193059 | 69 | 34 | 2.0 | 6.0 | 0.00 | 0.00 | 0.00 | 48 | 1018.5 |
| 20260509191557 | 67 | 115 | 0.0 | 7.0 | 0.00 | 0.00 | 0.00 | 56 | 1018.7 |
| 20260509190055 | 67 | 115 | 3.0 | 7.0 | 0.00 | 0.00 | 0.00 | 55 | 1018.8 |
| 20260509184556 | 67 | 348 | 3.0 | 6.0 | 0.00 | 0.00 | 0.00 | 55 | 1019.1 |
| 20260509183052 | 67 | 311 | 0.0 | 5.0 | 0.00 | 0.00 | 0.00 | 58 | 1019.2 |
| 20260509181558 | 66 | 136 | 2.0 | 5.0 | 0.00 | 0.00 | 0.00 | 57 | 1019.4 |
| 20260509180048 | 65 | 101 | 0.0 | 5.0 | 0.00 | 0.00 | 0.00 | 61 | 1019.4 |
| 20260509174543 | 64 | 28 | 1.0 | 4.0 | 0.00 | 0.00 | 0.00 | 65 | 1019.6 |
| 20260509173044 | 63 | 355 | 0.0 | 4.0 | 0.00 | 0.00 | 0.00 | 64 | 1019.8 |
| 20260509171538 | 63 | 48 | 0.0 | 3.0 | 0.00 | 0.00 | 0.00 | 65 | 1019.8 |
| 20260509170045 | 62 | 123 | 1.0 | 4.0 | 0.00 | 0.00 | 0.00 | 68 | 1019.9 |
| 20260509164539 | 61 | 203 | 0.0 | 3.0 | 0.00 | 0.00 | 0.00 | 71 | 1020.1 |
| 20260509163032 | 60 | 166 | 0.0 | 2.0 | 0.00 | 0.00 | 0.00 | 75 | 1020.2 |
| 20260509161533 | 59 | 165 | 0.0 | 0.0 | 0.00 | 0.00 | 0.00 | 77 | 1020.5 |
| 20260509160031 | 57 | 167 | 0.0 | 0.0 | 0.00 | 0.00 | 0.00 | 80 | 1020.7 |
| 20260509154520 | 56 | 167 | 0.0 | 0.0 | 0.00 | 0.00 | 0.00 | 81 | 1020.9 |
| 20260509153025 | 56 | 351 | 0.0 | 0.0 | 0.00 | 0.00 | 0.00 | 80 | 1020.8 |
| 20260509151516 | 54 | 351 | 0.0 | 0.0 | 0.00 | 0.00 | 0.00 | 85 | 1021.0 |
| 20260509150014 | 51 | 351 | 0.0 | 0.0 | 0.00 | 0.00 | 0.00 | 91 | 1021.1 |
| 20260509144513 | 49 | 351 | 0.0 | 0.0 | 0.00 | 0.00 | 0.00 | 92 | 1021.2 |
| 20260509143012 | 49 | 351 | 0.0 | 0.0 | 0.00 | 0.00 | 0.00 | 90 | 1021.2 |
| 20260509141512 | 50 | 351 | 0.0 | 0.0 | 0.00 | 0.00 | 0.00 | 89 | 1020.8 |
| 20260509140011 | 48 | 351 | 0.0 | 0.0 | 0.00 | 0.00 | 0.00 | 94 | 1021.0 |
| 20260509134511 | 46 | 338 | 0.0 | 0.0 | 0.00 | 0.00 | 0.00 | 94 | 1020.7 |
| 20260509133010 | 46 | 306 | 0.0 | 0.0 | 0.00 | 0.00 | 0.00 | 94 | 1020.7 |
| 20260509131513 | 46 | 306 | 0.0 | 0.0 | 0.00 | 0.00 | 0.00 | 95 | 1020.6 |
| 20260509130009 | 46 | 306 | 0.0 | 0.0 | 0.00 | 0.00 | 0.00 | 95 | 1020.6 |
| 20260509124510 | 46 | 306 | 0.0 | 0.0 | 0.00 | 0.00 | 0.00 | 94 | 1020.6 |
| 20260509123016 | 46 | 306 | 0.0 | 0.0 | 0.00 | 0.00 | 0.00 | 93 | 1020.7 |
| 20260509121505 | 46 | 306 | 0.0 | 0.0 | 0.00 | 0.00 | 0.00 | 92 | 1020.9 |
| 20260509120002 | 47 | 306 | 0.0 | 0.0 | 0.00 | 0.00 | 0.00 | 91 | 1021.0 |
| 20260509114558 | 48 | 306 | 0.0 | 0.0 | 0.00 | 0.00 | 0.00 | 92 | 1020.9 |
| 20260509113059 | 48 | 306 | 0.0 | 0.0 | 0.00 | 0.00 | 0.00 | 91 | 1021.0 |
| 20260509111558 | 47 | 306 | 0.0 | 0.0 | 0.00 | 0.00 | 0.00 | 91 | 1020.9 |
| 20260509110059 | 48 | 306 | 0.0 | 0.0 | 0.00 | 0.00 | 0.00 | 88 | 1021.1 |
| 20260509104551 | 49 | 306 | 0.0 | 0.0 | 0.00 | 0.00 | 0.00 | 87 | 1021.3 |
| 20260509103048 | 51 | 306 | 0.0 | 0.0 | 0.00 | 0.00 | 0.00 | 85 | 1021.4 |